sensor_id;sensor_type;location;lat;lon;timestamp;P1;durP1;ratioP1;P2;durP2;ratioP2
50533;SDS011;60631;49.236;8.398;2022-09-12T00:01:17;8.18;;;6.43;;
50533;SDS011;60631;49.236;8.398;2022-09-12T00:04:22;7.22;;;6.63;;
50533;SDS011;60631;49.236;8.398;2022-09-12T00:07:23;7.55;;;6.85;;
50533;SDS011;60631;49.236;8.398;2022-09-12T00:10:24;7.97;;;7.22;;
50533;SDS011;60631;49.236;8.398;2022-09-12T00:13:26;8.57;;;7.68;;
50533;SDS011;60631;49.236;8.398;2022-09-12T00:16:28;5.40;;;4.90;;
50533;SDS011;60631;49.236;8.398;2022-09-12T00:19:30;7.38;;;6.68;;
50533;SDS011;60631;49.236;8.398;2022-09-12T00:22:31;7.38;;;6.72;;
50533;SDS011;60631;49.236;8.398;2022-09-12T00:25:32;7.80;;;7.07;;
50533;SDS011;60631;49.236;8.398;2022-09-12T00:28:34;6.90;;;6.10;;
50533;SDS011;60631;49.236;8.398;2022-09-12T00:31:37;7.00;;;6.05;;
50533;SDS011;60631;49.236;8.398;2022-09-12T00:34:38;8.07;;;7.28;;
50533;SDS011;60631;49.236;8.398;2022-09-12T00:37:39;7.30;;;6.70;;
50533;SDS011;60631;49.236;8.398;2022-09-12T00:40:40;7.82;;;7.13;;
50533;SDS011;60631;49.236;8.398;2022-09-12T00:43:43;7.55;;;6.10;;
50533;SDS011;60631;49.236;8.398;2022-09-12T00:53:02;6.75;;;6.03;;
50533;SDS011;60631;49.236;8.398;2022-09-12T00:56:04;7.65;;;6.90;;
50533;SDS011;60631;49.236;8.398;2022-09-12T00:59:07;7.70;;;6.20;;
50533;SDS011;60631;49.236;8.398;2022-09-12T01:02:14;9.82;;;8.27;;
50533;SDS011;60631;49.236;8.398;2022-09-12T01:05:15;5.72;;;5.20;;
50533;SDS011;60631;49.236;8.398;2022-09-12T01:08:17;5.00;;;4.53;;
50533;SDS011;60631;49.236;8.398;2022-09-12T01:11:18;5.13;;;4.72;;
50533;SDS011;60631;49.236;8.398;2022-09-12T01:14:19;4.90;;;4.30;;
50533;SDS011;60631;49.236;8.398;2022-09-12T01:17:20;119.40;;;8.80;;
50533;SDS011;60631;49.236;8.398;2022-09-12T01:24:06;6.15;;;5.63;;
50533;SDS011;60631;49.236;8.398;2022-09-12T01:30:47;5.97;;;5.38;;
50533;SDS011;60631;49.236;8.398;2022-09-12T01:40:48;9.48;;;8.57;;
50533;SDS011;60631;49.236;8.398;2022-09-12T01:43:57;7.78;;;6.35;;
50533;SDS011;60631;49.236;8.398;2022-09-12T01:50:54;6.93;;;5.28;;
50533;SDS011;60631;49.236;8.398;2022-09-12T01:53:56;6.03;;;5.43;;
50533;SDS011;60631;49.236;8.398;2022-09-12T01:57:08;8.07;;;6.47;;
50533;SDS011;60631;49.236;8.398;2022-09-12T02:00:11;5.65;;;5.05;;
50533;SDS011;60631;49.236;8.398;2022-09-12T02:03:17;7.70;;;7.00;;
50533;SDS011;60631;49.236;8.398;2022-09-12T02:06:22;6.20;;;5.60;;
50533;SDS011;60631;49.236;8.398;2022-09-12T02:09:57;8.23;;;6.68;;
50533;SDS011;60631;49.236;8.398;2022-09-12T02:16:45;10.30;;;6.38;;
50533;SDS011;60631;49.236;8.398;2022-09-12T02:19:51;15.82;;;10.25;;
50533;SDS011;60631;49.236;8.398;2022-09-12T02:22:54;8.05;;;6.82;;
50533;SDS011;60631;49.236;8.398;2022-09-12T02:26:02;7.53;;;6.82;;
50533;SDS011;60631;49.236;8.398;2022-09-12T02:29:05;7.28;;;6.32;;
50533;SDS011;60631;49.236;8.398;2022-09-12T02:39:00;7.55;;;5.97;;
50533;SDS011;60631;49.236;8.398;2022-09-12T02:42:02;7.80;;;6.22;;
50533;SDS011;60631;49.236;8.398;2022-09-12T02:45:03;6.38;;;5.75;;
50533;SDS011;60631;49.236;8.398;2022-09-12T02:48:07;6.32;;;5.00;;
50533;SDS011;60631;49.236;8.398;2022-09-12T02:51:10;6.85;;;6.25;;
50533;SDS011;60631;49.236;8.398;2022-09-12T02:54:12;7.35;;;6.65;;
50533;SDS011;60631;49.236;8.398;2022-09-12T02:57:15;7.88;;;7.07;;
50533;SDS011;60631;49.236;8.398;2022-09-12T03:00:17;8.25;;;7.22;;
50533;SDS011;60631;49.236;8.398;2022-09-12T03:06:41;7.75;;;7.03;;
50533;SDS011;60631;49.236;8.398;2022-09-12T03:16:26;8.63;;;7.65;;
50533;SDS011;60631;49.236;8.398;2022-09-12T03:22:52;8.25;;;7.45;;
50533;SDS011;60631;49.236;8.398;2022-09-12T03:26:25;8.75;;;7.85;;
50533;SDS011;60631;49.236;8.398;2022-09-12T03:29:29;7.97;;;7.18;;
50533;SDS011;60631;49.236;8.398;2022-09-12T03:32:43;8.35;;;7.07;;
50533;SDS011;60631;49.236;8.398;2022-09-12T03:35:48;6.88;;;6.18;;
50533;SDS011;60631;49.236;8.398;2022-09-12T03:38:50;16.25;;;7.40;;
50533;SDS011;60631;49.236;8.398;2022-09-12T03:41:52;8.05;;;7.28;;
50533;SDS011;60631;49.236;8.398;2022-09-12T03:44:54;12.82;;;7.53;;
50533;SDS011;60631;49.236;8.398;2022-09-12T03:47:55;6.82;;;5.85;;
50533;SDS011;60631;49.236;8.398;2022-09-12T03:51:03;6.20;;;5.25;;
50533;SDS011;60631;49.236;8.398;2022-09-12T03:54:05;6.55;;;5.95;;
50533;SDS011;60631;49.236;8.398;2022-09-12T03:57:06;6.70;;;6.10;;
50533;SDS011;60631;49.236;8.398;2022-09-12T04:00:07;6.78;;;6.18;;
50533;SDS011;60631;49.236;8.398;2022-09-12T04:03:09;7.95;;;6.85;;
50533;SDS011;60631;49.236;8.398;2022-09-12T04:06:11;7.63;;;6.93;;
50533;SDS011;60631;49.236;8.398;2022-09-12T04:09:13;7.75;;;6.90;;
50533;SDS011;60631;49.236;8.398;2022-09-12T04:12:14;8.07;;;5.85;;
50533;SDS011;60631;49.236;8.398;2022-09-12T04:15:15;9.13;;;7.22;;
50533;SDS011;60631;49.236;8.398;2022-09-12T04:18:16;7.38;;;6.38;;
50533;SDS011;60631;49.236;8.398;2022-09-12T04:21:18;8.32;;;6.13;;
50533;SDS011;60631;49.236;8.398;2022-09-12T04:24:21;6.40;;;5.80;;
50533;SDS011;60631;49.236;8.398;2022-09-12T04:27:22;6.20;;;5.60;;
50533;SDS011;60631;49.236;8.398;2022-09-12T04:30:23;7.38;;;6.28;;
50533;SDS011;60631;49.236;8.398;2022-09-12T04:33:24;7.93;;;6.35;;
50533;SDS011;60631;49.236;8.398;2022-09-12T04:36:26;8.35;;;6.30;;
50533;SDS011;60631;49.236;8.398;2022-09-12T04:39:28;8.23;;;6.63;;
50533;SDS011;60631;49.236;8.398;2022-09-12T04:42:29;9.07;;;7.20;;
50533;SDS011;60631;49.236;8.398;2022-09-12T04:45:30;7.32;;;6.63;;
50533;SDS011;60631;49.236;8.398;2022-09-12T04:48:31;10.73;;;6.80;;
50533;SDS011;60631;49.236;8.398;2022-09-12T04:51:33;9.77;;;8.77;;
50533;SDS011;60631;49.236;8.398;2022-09-12T04:54:35;8.15;;;7.22;;
50533;SDS011;60631;49.236;8.398;2022-09-12T04:57:37;7.57;;;6.80;;
50533;SDS011;60631;49.236;8.398;2022-09-12T05:00:38;9.98;;;7.38;;
50533;SDS011;60631;49.236;8.398;2022-09-12T05:03:40;7.63;;;6.82;;
50533;SDS011;60631;49.236;8.398;2022-09-12T05:06:43;6.63;;;6.00;;
50533;SDS011;60631;49.236;8.398;2022-09-12T05:09:46;6.95;;;6.35;;
50533;SDS011;60631;49.236;8.398;2022-09-12T05:12:47;8.02;;;6.60;;
50533;SDS011;60631;49.236;8.398;2022-09-12T05:15:55;8.02;;;6.53;;
50533;SDS011;60631;49.236;8.398;2022-09-12T05:18:57;5.70;;;5.20;;
50533;SDS011;60631;49.236;8.398;2022-09-12T05:21:59;6.13;;;5.53;;
50533;SDS011;60631;49.236;8.398;2022-09-12T05:25:00;5.93;;;4.93;;
50533;SDS011;60631;49.236;8.398;2022-09-12T05:28:01;6.78;;;6.10;;
50533;SDS011;60631;49.236;8.398;2022-09-12T05:31:13;7.32;;;6.55;;
50533;SDS011;60631;49.236;8.398;2022-09-12T05:34:18;7.80;;;7.00;;
50533;SDS011;60631;49.236;8.398;2022-09-12T05:37:19;7.53;;;5.78;;
50533;SDS011;60631;49.236;8.398;2022-09-12T05:40:20;8.20;;;7.35;;
50533;SDS011;60631;49.236;8.398;2022-09-12T05:43:21;7.78;;;7.00;;
50533;SDS011;60631;49.236;8.398;2022-09-12T05:46:24;8.50;;;6.93;;
50533;SDS011;60631;49.236;8.398;2022-09-12T05:49:28;8.95;;;8.05;;
50533;SDS011;60631;49.236;8.398;2022-09-12T05:52:30;10.23;;;8.18;;
50533;SDS011;60631;49.236;8.398;2022-09-12T05:55:32;9.05;;;8.02;;
50533;SDS011;60631;49.236;8.398;2022-09-12T05:58:34;9.05;;;8.15;;
50533;SDS011;60631;49.236;8.398;2022-09-12T06:01:35;8.35;;;7.10;;
50533;SDS011;60631;49.236;8.398;2022-09-12T06:04:38;9.55;;;7.80;;
50533;SDS011;60631;49.236;8.398;2022-09-12T06:07:40;10.13;;;8.43;;
50533;SDS011;60631;49.236;8.398;2022-09-12T06:10:41;8.52;;;7.65;;
50533;SDS011;60631;49.236;8.398;2022-09-12T06:13:43;8.57;;;7.57;;
50533;SDS011;60631;49.236;8.398;2022-09-12T06:16:44;8.82;;;7.93;;
50533;SDS011;60631;49.236;8.398;2022-09-12T06:19:46;8.68;;;7.70;;
50533;SDS011;60631;49.236;8.398;2022-09-12T06:22:52;8.00;;;7.20;;
50533;SDS011;60631;49.236;8.398;2022-09-12T06:25:53;9.17;;;8.03;;
50533;SDS011;60631;49.236;8.398;2022-09-12T06:28:55;9.55;;;8.55;;
50533;SDS011;60631;49.236;8.398;2022-09-12T06:31:57;9.65;;;7.38;;
50533;SDS011;60631;49.236;8.398;2022-09-12T06:34:58;10.05;;;8.23;;
50533;SDS011;60631;49.236;8.398;2022-09-12T06:37:59;10.27;;;8.10;;
50533;SDS011;60631;49.236;8.398;2022-09-12T06:41:04;8.55;;;7.65;;
50533;SDS011;60631;49.236;8.398;2022-09-12T06:44:06;9.30;;;8.20;;
50533;SDS011;60631;49.236;8.398;2022-09-12T06:47:07;9.55;;;8.60;;
50533;SDS011;60631;49.236;8.398;2022-09-12T06:50:08;10.50;;;8.63;;
50533;SDS011;60631;49.236;8.398;2022-09-12T06:53:09;8.93;;;8.00;;
50533;SDS011;60631;49.236;8.398;2022-09-12T06:56:11;10.40;;;8.88;;
50533;SDS011;60631;49.236;8.398;2022-09-12T06:59:14;11.57;;;8.73;;
50533;SDS011;60631;49.236;8.398;2022-09-12T07:02:15;11.07;;;7.68;;
50533;SDS011;60631;49.236;8.398;2022-09-12T07:05:16;9.90;;;8.57;;
50533;SDS011;60631;49.236;8.398;2022-09-12T07:08:17;10.23;;;7.95;;
50533;SDS011;60631;49.236;8.398;2022-09-12T07:14:20;8.52;;;7.57;;
50533;SDS011;60631;49.236;8.398;2022-09-12T07:17:21;10.38;;;7.50;;
50533;SDS011;60631;49.236;8.398;2022-09-12T07:20:22;8.50;;;7.68;;
50533;SDS011;60631;49.236;8.398;2022-09-12T07:23:23;9.02;;;8.13;;
50533;SDS011;60631;49.236;8.398;2022-09-12T07:26:25;10.15;;;7.60;;
50533;SDS011;60631;49.236;8.398;2022-09-12T07:29:27;9.38;;;8.15;;
50533;SDS011;60631;49.236;8.398;2022-09-12T07:32:28;8.38;;;7.55;;
50533;SDS011;60631;49.236;8.398;2022-09-12T07:35:31;8.38;;;7.22;;
50533;SDS011;60631;49.236;8.398;2022-09-12T07:38:33;8.30;;;7.40;;
50533;SDS011;60631;49.236;8.398;2022-09-12T07:41:34;8.32;;;7.47;;
50533;SDS011;60631;49.236;8.398;2022-09-12T07:44:35;9.57;;;7.65;;
50533;SDS011;60631;49.236;8.398;2022-09-12T07:47:36;9.77;;;7.40;;
50533;SDS011;60631;49.236;8.398;2022-09-12T07:50:37;8.10;;;7.30;;
50533;SDS011;60631;49.236;8.398;2022-09-12T07:53:39;8.30;;;7.45;;
50533;SDS011;60631;49.236;8.398;2022-09-12T07:56:41;8.63;;;7.38;;
50533;SDS011;60631;49.236;8.398;2022-09-12T07:59:42;7.35;;;6.53;;
50533;SDS011;60631;49.236;8.398;2022-09-12T08:02:43;7.65;;;6.85;;
50533;SDS011;60631;49.236;8.398;2022-09-12T08:05:44;7.85;;;6.93;;
50533;SDS011;60631;49.236;8.398;2022-09-12T08:08:45;7.15;;;6.45;;
50533;SDS011;60631;49.236;8.398;2022-09-12T08:11:47;7.93;;;6.72;;
50533;SDS011;60631;49.236;8.398;2022-09-12T08:14:48;7.65;;;6.95;;
50533;SDS011;60631;49.236;8.398;2022-09-12T08:17:49;8.77;;;7.72;;
50533;SDS011;60631;49.236;8.398;2022-09-12T08:20:55;7.70;;;6.93;;
50533;SDS011;60631;49.236;8.398;2022-09-12T08:24:00;6.85;;;6.25;;
50533;SDS011;60631;49.236;8.398;2022-09-12T08:27:03;7.53;;;6.82;;
50533;SDS011;60631;49.236;8.398;2022-09-12T08:30:05;8.80;;;7.90;;
50533;SDS011;60631;49.236;8.398;2022-09-12T08:33:06;7.07;;;6.38;;
50533;SDS011;60631;49.236;8.398;2022-09-12T08:39:15;7.22;;;6.60;;
50533;SDS011;60631;49.236;8.398;2022-09-12T08:42:21;6.68;;;6.07;;
50533;SDS011;60631;49.236;8.398;2022-09-12T08:45:32;6.47;;;5.88;;
50533;SDS011;60631;49.236;8.398;2022-09-12T08:48:36;6.85;;;6.20;;
50533;SDS011;60631;49.236;8.398;2022-09-12T08:51:38;6.28;;;5.68;;
50533;SDS011;60631;49.236;8.398;2022-09-12T08:54:39;8.05;;;6.05;;
50533;SDS011;60631;49.236;8.398;2022-09-12T08:57:41;6.55;;;5.93;;
50533;SDS011;60631;49.236;8.398;2022-09-12T09:00:57;6.80;;;6.20;;
50533;SDS011;60631;49.236;8.398;2022-09-12T09:07:32;5.95;;;5.28;;
50533;SDS011;60631;49.236;8.398;2022-09-12T09:17:51;6.18;;;4.70;;
50533;SDS011;60631;49.236;8.398;2022-09-12T09:20:55;5.63;;;5.13;;
50533;SDS011;60631;49.236;8.398;2022-09-12T09:24:01;5.15;;;4.65;;
50533;SDS011;60631;49.236;8.398;2022-09-12T09:30:30;4.65;;;4.25;;
50533;SDS011;60631;49.236;8.398;2022-09-12T09:33:33;5.60;;;4.25;;
50533;SDS011;60631;49.236;8.398;2022-09-12T09:43:15;5.00;;;3.85;;
50533;SDS011;60631;49.236;8.398;2022-09-12T09:46:19;4.35;;;3.70;;
50533;SDS011;60631;49.236;8.398;2022-09-12T09:49:20;3.83;;;3.53;;
50533;SDS011;60631;49.236;8.398;2022-09-12T09:52:25;3.83;;;3.50;;
50533;SDS011;60631;49.236;8.398;2022-09-12T09:55:31;4.20;;;3.72;;
50533;SDS011;60631;49.236;8.398;2022-09-12T09:58:37;4.70;;;3.72;;
50533;SDS011;60631;49.236;8.398;2022-09-12T10:04:52;3.40;;;3.08;;
50533;SDS011;60631;49.236;8.398;2022-09-12T10:07:54;3.92;;;3.53;;
50533;SDS011;60631;49.236;8.398;2022-09-12T10:10:57;5.45;;;3.38;;
50533;SDS011;60631;49.236;8.398;2022-09-12T10:14:01;3.95;;;3.38;;
50533;SDS011;60631;49.236;8.398;2022-09-12T10:23:39;3.42;;;2.97;;
50533;SDS011;60631;49.236;8.398;2022-09-12T10:26:40;2.70;;;2.50;;
50533;SDS011;60631;49.236;8.398;2022-09-12T10:37:18;3.03;;;2.45;;
50533;SDS011;60631;49.236;8.398;2022-09-12T10:40:28;3.33;;;2.70;;
50533;SDS011;60631;49.236;8.398;2022-09-12T10:46:33;2.80;;;2.60;;
50533;SDS011;60631;49.236;8.398;2022-09-12T10:49:34;3.10;;;2.80;;
50533;SDS011;60631;49.236;8.398;2022-09-12T10:52:39;2.80;;;2.60;;
50533;SDS011;60631;49.236;8.398;2022-09-12T10:55:42;3.20;;;3.00;;
50533;SDS011;60631;49.236;8.398;2022-09-12T11:09:04;3.25;;;2.38;;
50533;SDS011;60631;49.236;8.398;2022-09-12T11:12:35;2.72;;;2.50;;
50533;SDS011;60631;49.236;8.398;2022-09-12T11:29:28;2.38;;;2.28;;
50533;SDS011;60631;49.236;8.398;2022-09-12T11:32:48;2.58;;;2.20;;
50533;SDS011;60631;49.236;8.398;2022-09-12T11:36:14;2.10;;;2.00;;
50533;SDS011;60631;49.236;8.398;2022-09-12T11:39:26;2.38;;;2.00;;
50533;SDS011;60631;49.236;8.398;2022-09-12T11:42:37;1.70;;;1.60;;
50533;SDS011;60631;49.236;8.398;2022-09-12T11:45:43;1.60;;;1.50;;
50533;SDS011;60631;49.236;8.398;2022-09-12T11:49:46;1.60;;;1.50;;
50533;SDS011;60631;49.236;8.398;2022-09-12T11:52:25;1.83;;;1.73;;
50533;SDS011;60631;49.236;8.398;2022-09-12T11:55:31;1.75;;;1.65;;
50533;SDS011;60631;49.236;8.398;2022-09-12T11:58:39;2.10;;;1.90;;
50533;SDS011;60631;49.236;8.398;2022-09-12T12:01:42;3.17;;;1.83;;
50533;SDS011;60631;49.236;8.398;2022-09-12T12:04:54;2.40;;;2.20;;
50533;SDS011;60631;49.236;8.398;2022-09-12T12:08:03;2.35;;;1.90;;
50533;SDS011;60631;49.236;8.398;2022-09-12T12:11:05;2.50;;;1.60;;
50533;SDS011;60631;49.236;8.398;2022-09-12T12:14:21;1.75;;;1.65;;
50533;SDS011;60631;49.236;8.398;2022-09-12T12:17:25;1.60;;;1.50;;
50533;SDS011;60631;49.236;8.398;2022-09-12T12:20:26;1.85;;;1.67;;
50533;SDS011;60631;49.236;8.398;2022-09-12T12:23:29;1.90;;;1.52;;
50533;SDS011;60631;49.236;8.398;2022-09-12T12:29:43;1.75;;;1.60;;
50533;SDS011;60631;49.236;8.398;2022-09-12T12:32:44;1.73;;;1.60;;
50533;SDS011;60631;49.236;8.398;2022-09-12T12:38:58;2.10;;;1.60;;
50533;SDS011;60631;49.236;8.398;2022-09-12T12:51:54;1.67;;;1.58;;
50533;SDS011;60631;49.236;8.398;2022-09-12T12:54:57;1.58;;;1.48;;
50533;SDS011;60631;49.236;8.398;2022-09-12T12:58:00;1.48;;;1.40;;
50533;SDS011;60631;49.236;8.398;2022-09-12T13:04:24;2.50;;;1.70;;
50533;SDS011;60631;49.236;8.398;2022-09-12T13:07:36;1.90;;;1.58;;
50533;SDS011;60631;49.236;8.398;2022-09-12T13:10:38;1.63;;;1.52;;
50533;SDS011;60631;49.236;8.398;2022-09-12T13:16:58;1.52;;;1.40;;
50533;SDS011;60631;49.236;8.398;2022-09-12T13:23:22;1.60;;;1.50;;
50533;SDS011;60631;49.236;8.398;2022-09-12T13:26:28;1.70;;;1.60;;
50533;SDS011;60631;49.236;8.398;2022-09-12T13:29:33;2.35;;;1.60;;
50533;SDS011;60631;49.236;8.398;2022-09-12T13:32:34;1.77;;;1.48;;
50533;SDS011;60631;49.236;8.398;2022-09-12T13:35:45;2.25;;;1.55;;
50533;SDS011;60631;49.236;8.398;2022-09-12T13:42:38;1.77;;;1.45;;
50533;SDS011;60631;49.236;8.398;2022-09-12T13:45:48;1.30;;;1.20;;
50533;SDS011;60631;49.236;8.398;2022-09-12T13:48:50;1.67;;;1.58;;
50533;SDS011;60631;49.236;8.398;2022-09-12T13:51:58;1.50;;;1.40;;
50533;SDS011;60631;49.236;8.398;2022-09-12T13:55:01;1.50;;;1.30;;
50533;SDS011;60631;49.236;8.398;2022-09-12T13:58:14;1.40;;;1.30;;
50533;SDS011;60631;49.236;8.398;2022-09-12T14:01:17;1.45;;;1.35;;
50533;SDS011;60631;49.236;8.398;2022-09-12T14:04:22;1.45;;;1.30;;
50533;SDS011;60631;49.236;8.398;2022-09-12T14:07:48;1.48;;;1.38;;
50533;SDS011;60631;49.236;8.398;2022-09-12T14:10:52;1.45;;;1.35;;
50533;SDS011;60631;49.236;8.398;2022-09-12T14:13:54;1.55;;;1.45;;
50533;SDS011;60631;49.236;8.398;2022-09-12T14:16:56;1.60;;;1.30;;
50533;SDS011;60631;49.236;8.398;2022-09-12T14:19:59;1.40;;;1.27;;
50533;SDS011;60631;49.236;8.398;2022-09-12T14:23:11;1.42;;;1.20;;
50533;SDS011;60631;49.236;8.398;2022-09-12T14:26:36;1.83;;;1.25;;
50533;SDS011;60631;49.236;8.398;2022-09-12T14:29:40;1.40;;;1.30;;
50533;SDS011;60631;49.236;8.398;2022-09-12T14:32:43;1.15;;;1.05;;
50533;SDS011;60631;49.236;8.398;2022-09-12T14:42:32;1.00;;;1.00;;
50533;SDS011;60631;49.236;8.398;2022-09-12T14:45:33;1.48;;;1.02;;
50533;SDS011;60631;49.236;8.398;2022-09-12T14:48:35;1.20;;;1.10;;
50533;SDS011;60631;49.236;8.398;2022-09-12T14:51:38;1.40;;;1.30;;
50533;SDS011;60631;49.236;8.398;2022-09-12T14:58:22;1.02;;;1.02;;
50533;SDS011;60631;49.236;8.398;2022-09-12T15:01:22;1.75;;;1.15;;
50533;SDS011;60631;49.236;8.398;2022-09-12T15:04:37;1.27;;;1.17;;
50533;SDS011;60631;49.236;8.398;2022-09-12T15:07:59;1.20;;;1.15;;
50533;SDS011;60631;49.236;8.398;2022-09-12T15:11:00;2.63;;;1.13;;
50533;SDS011;60631;49.236;8.398;2022-09-12T15:14:05;1.13;;;1.10;;
50533;SDS011;60631;49.236;8.398;2022-09-12T15:17:08;2.00;;;1.30;;
50533;SDS011;60631;49.236;8.398;2022-09-12T15:20:10;1.00;;;1.00;;
50533;SDS011;60631;49.236;8.398;2022-09-12T15:23:17;1.23;;;1.13;;
50533;SDS011;60631;49.236;8.398;2022-09-12T15:26:20;1.10;;;1.10;;
50533;SDS011;60631;49.236;8.398;2022-09-12T15:29:22;1.40;;;1.30;;
50533;SDS011;60631;49.236;8.398;2022-09-12T15:32:24;2.03;;;1.20;;
50533;SDS011;60631;49.236;8.398;2022-09-12T15:35:31;1.95;;;1.33;;
50533;SDS011;60631;49.236;8.398;2022-09-12T15:38:33;1.13;;;1.13;;
50533;SDS011;60631;49.236;8.398;2022-09-12T15:41:35;1.67;;;1.25;;
50533;SDS011;60631;49.236;8.398;2022-09-12T15:44:37;1.38;;;1.13;;
50533;SDS011;60631;49.236;8.398;2022-09-12T15:47:38;1.20;;;1.10;;
50533;SDS011;60631;49.236;8.398;2022-09-12T15:50:39;1.10;;;1.00;;
50533;SDS011;60631;49.236;8.398;2022-09-12T15:53:41;1.20;;;1.10;;
50533;SDS011;60631;49.236;8.398;2022-09-12T15:56:42;1.00;;;1.00;;
50533;SDS011;60631;49.236;8.398;2022-09-12T15:59:43;1.33;;;1.23;;
50533;SDS011;60631;49.236;8.398;2022-09-12T16:02:45;1.20;;;1.10;;
50533;SDS011;60631;49.236;8.398;2022-09-12T16:05:47;1.80;;;0.98;;
50533;SDS011;60631;49.236;8.398;2022-09-12T16:08:48;1.20;;;1.10;;
50533;SDS011;60631;49.236;8.398;2022-09-12T16:11:49;1.80;;;1.10;;
50533;SDS011;60631;49.236;8.398;2022-09-12T16:14:51;1.10;;;1.10;;
50533;SDS011;60631;49.236;8.398;2022-09-12T16:17:52;1.20;;;1.10;;
50533;SDS011;60631;49.236;8.398;2022-09-12T16:20:54;1.00;;;1.00;;
50533;SDS011;60631;49.236;8.398;2022-09-12T16:23:55;1.73;;;1.10;;
50533;SDS011;60631;49.236;8.398;2022-09-12T16:26:56;1.17;;;1.08;;
50533;SDS011;60631;49.236;8.398;2022-09-12T16:29:57;2.08;;;1.20;;
50533;SDS011;60631;49.236;8.398;2022-09-12T16:32:58;1.90;;;1.20;;
50533;SDS011;60631;49.236;8.398;2022-09-12T16:36:09;2.47;;;1.20;;
50533;SDS011;60631;49.236;8.398;2022-09-12T16:39:12;1.20;;;1.20;;
50533;SDS011;60631;49.236;8.398;2022-09-12T16:42:13;1.45;;;1.35;;
50533;SDS011;60631;49.236;8.398;2022-09-12T16:45:15;1.30;;;1.20;;
50533;SDS011;60631;49.236;8.398;2022-09-12T16:48:16;1.52;;;1.42;;
50533;SDS011;60631;49.236;8.398;2022-09-12T16:51:19;1.40;;;1.30;;
50533;SDS011;60631;49.236;8.398;2022-09-12T16:54:21;1.15;;;1.02;;
50533;SDS011;60631;49.236;8.398;2022-09-12T16:57:23;2.55;;;1.13;;
50533;SDS011;60631;49.236;8.398;2022-09-12T17:00:24;1.33;;;1.23;;
50533;SDS011;60631;49.236;8.398;2022-09-12T17:03:25;1.85;;;1.40;;
50533;SDS011;60631;49.236;8.398;2022-09-12T17:06:27;1.20;;;1.20;;
50533;SDS011;60631;49.236;8.398;2022-09-12T17:09:28;1.23;;;1.20;;
50533;SDS011;60631;49.236;8.398;2022-09-12T17:12:29;1.52;;;1.42;;
50533;SDS011;60631;49.236;8.398;2022-09-12T17:15:30;1.52;;;1.42;;
50533;SDS011;60631;49.236;8.398;2022-09-12T17:18:31;1.70;;;1.50;;
50533;SDS011;60631;49.236;8.398;2022-09-12T17:21:33;1.63;;;1.52;;
50533;SDS011;60631;49.236;8.398;2022-09-12T17:24:34;1.40;;;1.40;;
50533;SDS011;60631;49.236;8.398;2022-09-12T17:27:35;1.42;;;1.33;;
50533;SDS011;60631;49.236;8.398;2022-09-12T17:30:36;1.70;;;1.60;;
50533;SDS011;60631;49.236;8.398;2022-09-12T17:33:38;2.17;;;1.58;;
50533;SDS011;60631;49.236;8.398;2022-09-12T17:36:39;2.38;;;2.17;;
50533;SDS011;60631;49.236;8.398;2022-09-12T17:39:44;3.17;;;1.50;;
50533;SDS011;60631;49.236;8.398;2022-09-12T17:42:45;2.22;;;1.73;;
50533;SDS011;60631;49.236;8.398;2022-09-12T17:45:50;2.10;;;1.70;;
50533;SDS011;60631;49.236;8.398;2022-09-12T17:48:56;2.65;;;1.70;;
50533;SDS011;60631;49.236;8.398;2022-09-12T17:51:57;1.77;;;1.60;;
50533;SDS011;60631;49.236;8.398;2022-09-12T17:54:58;1.80;;;1.70;;
50533;SDS011;60631;49.236;8.398;2022-09-12T17:57:59;1.98;;;1.80;;
50533;SDS011;60631;49.236;8.398;2022-09-12T18:01:11;2.03;;;1.52;;
50533;SDS011;60631;49.236;8.398;2022-09-12T18:04:31;1.80;;;1.70;;
50533;SDS011;60631;49.236;8.398;2022-09-12T18:07:32;1.80;;;1.70;;
50533;SDS011;60631;49.236;8.398;2022-09-12T18:10:35;2.08;;;1.88;;
50533;SDS011;60631;49.236;8.398;2022-09-12T18:13:37;1.92;;;1.83;;
50533;SDS011;60631;49.236;8.398;2022-09-12T18:16:38;2.35;;;2.15;;
50533;SDS011;60631;49.236;8.398;2022-09-12T18:19:39;2.42;;;1.70;;
50533;SDS011;60631;49.236;8.398;2022-09-12T18:22:40;2.50;;;1.92;;
50533;SDS011;60631;49.236;8.398;2022-09-12T18:25:41;3.15;;;1.75;;
50533;SDS011;60631;49.236;8.398;2022-09-12T18:28:42;2.63;;;1.88;;
50533;SDS011;60631;49.236;8.398;2022-09-12T18:31:44;2.05;;;1.95;;
50533;SDS011;60631;49.236;8.398;2022-09-12T18:34:46;2.58;;;1.92;;
50533;SDS011;60631;49.236;8.398;2022-09-12T18:37:47;1.95;;;1.70;;
50533;SDS011;60631;49.236;8.398;2022-09-12T18:40:49;2.92;;;1.98;;
50533;SDS011;60631;49.236;8.398;2022-09-12T18:43:56;2.42;;;2.05;;
50533;SDS011;60631;49.236;8.398;2022-09-12T18:46:58;2.10;;;1.85;;
50533;SDS011;60631;49.236;8.398;2022-09-12T18:50:00;2.45;;;2.03;;
50533;SDS011;60631;49.236;8.398;2022-09-12T18:53:01;2.35;;;2.15;;
50533;SDS011;60631;49.236;8.398;2022-09-12T18:56:06;4.60;;;2.20;;
50533;SDS011;60631;49.236;8.398;2022-09-12T18:59:09;2.63;;;1.95;;
50533;SDS011;60631;49.236;8.398;2022-09-12T19:02:14;3.90;;;2.08;;
50533;SDS011;60631;49.236;8.398;2022-09-12T19:05:15;2.47;;;2.28;;
50533;SDS011;60631;49.236;8.398;2022-09-12T19:08:16;2.08;;;1.98;;
50533;SDS011;60631;49.236;8.398;2022-09-12T19:11:18;3.38;;;2.10;;
50533;SDS011;60631;49.236;8.398;2022-09-12T19:14:21;2.38;;;2.17;;
50533;SDS011;60631;49.236;8.398;2022-09-12T19:17:23;2.30;;;2.20;;
50533;SDS011;60631;49.236;8.398;2022-09-12T19:20:24;3.75;;;2.25;;
50533;SDS011;60631;49.236;8.398;2022-09-12T19:23:25;4.60;;;2.20;;
50533;SDS011;60631;49.236;8.398;2022-09-12T19:26:27;2.38;;;2.20;;
50533;SDS011;60631;49.236;8.398;2022-09-12T19:29:28;2.50;;;2.17;;
50533;SDS011;60631;49.236;8.398;2022-09-12T19:32:29;2.90;;;2.30;;
50533;SDS011;60631;49.236;8.398;2022-09-12T19:35:30;2.88;;;2.40;;
50533;SDS011;60631;49.236;8.398;2022-09-12T19:38:33;2.40;;;2.20;;
50533;SDS011;60631;49.236;8.398;2022-09-12T19:41:34;2.28;;;2.10;;
50533;SDS011;60631;49.236;8.398;2022-09-12T19:44:35;2.50;;;2.15;;
50533;SDS011;60631;49.236;8.398;2022-09-12T19:47:36;2.42;;;2.30;;
50533;SDS011;60631;49.236;8.398;2022-09-12T19:50:37;2.85;;;2.55;;
50533;SDS011;60631;49.236;8.398;2022-09-12T19:53:39;3.40;;;2.53;;
50533;SDS011;60631;49.236;8.398;2022-09-12T19:56:40;3.05;;;2.25;;
50533;SDS011;60631;49.236;8.398;2022-09-12T19:59:41;3.30;;;2.72;;
50533;SDS011;60631;49.236;8.398;2022-09-12T20:02:42;2.67;;;2.40;;
50533;SDS011;60631;49.236;8.398;2022-09-12T20:05:43;3.47;;;2.60;;
50533;SDS011;60631;49.236;8.398;2022-09-12T20:08:44;2.47;;;2.28;;
50533;SDS011;60631;49.236;8.398;2022-09-12T20:11:45;3.40;;;2.58;;
50533;SDS011;60631;49.236;8.398;2022-09-12T20:14:46;3.50;;;2.38;;
50533;SDS011;60631;49.236;8.398;2022-09-12T20:17:51;5.20;;;2.50;;
50533;SDS011;60631;49.236;8.398;2022-09-12T20:20:54;2.53;;;2.30;;
50533;SDS011;60631;49.236;8.398;2022-09-12T20:23:58;3.42;;;2.50;;
50533;SDS011;60631;49.236;8.398;2022-09-12T20:27:04;3.53;;;2.80;;
50533;SDS011;60631;49.236;8.398;2022-09-12T20:30:05;2.80;;;2.53;;
50533;SDS011;60631;49.236;8.398;2022-09-12T20:33:06;3.10;;;2.78;;
50533;SDS011;60631;49.236;8.398;2022-09-12T20:36:11;4.22;;;2.72;;
50533;SDS011;60631;49.236;8.398;2022-09-12T20:39:15;3.42;;;2.70;;
50533;SDS011;60631;49.236;8.398;2022-09-12T20:42:18;3.13;;;2.92;;
50533;SDS011;60631;49.236;8.398;2022-09-12T20:45:19;2.95;;;2.65;;
50533;SDS011;60631;49.236;8.398;2022-09-12T20:48:20;4.18;;;2.60;;
50533;SDS011;60631;49.236;8.398;2022-09-12T20:51:21;5.05;;;2.85;;
50533;SDS011;60631;49.236;8.398;2022-09-12T20:54:24;2.95;;;2.72;;
50533;SDS011;60631;49.236;8.398;2022-09-12T20:57:25;3.38;;;3.03;;
50533;SDS011;60631;49.236;8.398;2022-09-12T21:00:28;4.57;;;2.90;;
50533;SDS011;60631;49.236;8.398;2022-09-12T21:03:30;3.85;;;3.15;;
50533;SDS011;60631;49.236;8.398;2022-09-12T21:06:31;2.90;;;2.70;;